ANA1892 RJTH-RJTT
Flight info
| Callsign | ANA1892 |
|---|---|
| Flight time | 0h 33m |
| Altitude | 15000 |
| Route | TOPIT Y875 AROSA |
| Aircraft | A20N/M-SDE3FGHIRWY/LB1 |
Departure
| Time | 2026-05-08 04:46 |
|---|---|
| Airport | Hachijojima Airport (RJTH) |
Arrival
| Time | 2026-05-08 05:19 |
|---|---|
| Airport | Tokyo Haneda International Airport (RJTT) |
| Time | Latitude | Longitude | Altitude | Speed | Heading |
|---|---|---|---|---|---|
| 2026-05-08 04:14 | 33.11600 | 139.78322 | 305 ft | 0 kts | 340° |
| 2026-05-08 04:15 | 33.11586 | 139.78276 | 305 ft | 0 kts | 340° |
| 2026-05-08 04:38 | 33.11582 | 139.78278 | 305 ft | 2 kts | 338° |
| 2026-05-08 04:38 | 33.11568 | 139.78284 | 305 ft | 2 kts | 341° |
| 2026-05-08 04:38 | 33.11553 | 139.78290 | 305 ft | 2 kts | 5° |
| 2026-05-08 04:39 | 33.11539 | 139.78284 | 305 ft | 2 kts | 32° |
| 2026-05-08 04:39 | 33.11528 | 139.78271 | 305 ft | 1 kts | 61° |
| 2026-05-08 04:39 | 33.11526 | 139.78265 | 305 ft | 1 kts | 73° |
| 2026-05-08 04:39 | 33.11525 | 139.78261 | 305 ft | 0 kts | 70° |
| 2026-05-08 04:42 | 33.11527 | 139.78270 | 305 ft | 2 kts | 70° |
| 2026-05-08 04:42 | 33.11530 | 139.78304 | 305 ft | 6 kts | 111° |
| 2026-05-08 04:42 | 33.11491 | 139.78339 | 305 ft | 7 kts | 156° |
| 2026-05-08 04:43 | 33.11451 | 139.78381 | 305 ft | 7 kts | 112° |
| 2026-05-08 04:43 | 33.11472 | 139.78461 | 305 ft | 14 kts | 65° |
| 2026-05-08 04:43 | 33.11521 | 139.78607 | 305 ft | 23 kts | 70° |
| 2026-05-08 04:43 | 33.11588 | 139.78822 | 305 ft | 31 kts | 70° |
| 2026-05-08 04:44 | 33.11672 | 139.79088 | 305 ft | 35 kts | 69° |
| 2026-05-08 04:44 | 33.11755 | 139.79353 | 305 ft | 31 kts | 70° |
| 2026-05-08 04:44 | 33.11807 | 139.79498 | 305 ft | 12 kts | 53° |
| 2026-05-08 04:44 | 33.11819 | 139.79562 | 305 ft | 4 kts | 164° |
| 2026-05-08 04:45 | 33.11807 | 139.79524 | 305 ft | 6 kts | 252° |
| 2026-05-08 04:45 | 33.11803 | 139.79512 | 305 ft | 0 kts | 250° |
| 2026-05-08 04:45 | 33.11799 | 139.79500 | 305 ft | 12 kts | 250° |
| 2026-05-08 04:46 | 33.11672 | 139.79095 | 305 ft | 88 kts | 250° |
| 2026-05-08 04:46 | 33.11383 | 139.78197 | 387 ft | 137 kts | 245° |
| 2026-05-08 04:46 | 33.11030 | 139.77130 | 959 ft | 141 kts | 248° |
| 2026-05-08 04:46 | 33.10701 | 139.76051 | 1701 ft | 141 kts | 249° |
| 2026-05-08 04:47 | 33.10392 | 139.75005 | 2503 ft | 135 kts | 249° |
| 2026-05-08 04:47 | 33.10101 | 139.73975 | 3203 ft | 134 kts | 252° |
| 2026-05-08 04:47 | 33.10187 | 139.72842 | 3767 ft | 154 kts | 289° |
| 2026-05-08 04:47 | 33.11067 | 139.71916 | 4184 ft | 193 kts | 330° |
| 2026-05-08 04:48 | 33.12532 | 139.71860 | 4601 ft | 229 kts | 2° |
| 2026-05-08 04:48 | 33.14164 | 139.72260 | 5049 ft | 253 kts | 7° |
| 2026-05-08 04:48 | 33.15934 | 139.72749 | 5543 ft | 274 kts | 7° |
| 2026-05-08 04:48 | 33.17870 | 139.73283 | 6129 ft | 293 kts | 7° |
| 2026-05-08 04:49 | 33.19901 | 139.73833 | 6842 ft | 305 kts | 7° |
| 2026-05-08 04:49 | 33.21989 | 139.74387 | 7726 ft | 310 kts | 7° |
| 2026-05-08 04:49 | 33.24099 | 139.74940 | 8601 ft | 315 kts | 6° |
| 2026-05-08 04:49 | 33.26246 | 139.75496 | 9428 ft | 320 kts | 6° |
| 2026-05-08 04:50 | 33.28414 | 139.76053 | 10239 ft | 325 kts | 6° |
| 2026-05-08 04:50 | 33.30676 | 139.76628 | 10825 ft | 339 kts | 6° |
| 2026-05-08 04:50 | 33.33057 | 139.77228 | 11252 ft | 357 kts | 6° |
| 2026-05-08 04:50 | 33.35526 | 139.77852 | 11629 ft | 375 kts | 7° |
| 2026-05-08 04:51 | 33.38168 | 139.78523 | 11978 ft | 394 kts | 7° |
| 2026-05-08 04:51 | 33.40880 | 139.79216 | 12278 ft | 412 kts | 7° |
| 2026-05-08 04:51 | 33.43756 | 139.79950 | 12563 ft | 429 kts | 7° |
| 2026-05-08 04:51 | 33.46733 | 139.80711 | 12832 ft | 444 kts | 8° |
| 2026-05-08 04:52 | 33.49767 | 139.81491 | 13262 ft | 453 kts | 8° |
| 2026-05-08 04:52 | 33.52870 | 139.82294 | 13841 ft | 458 kts | 8° |
| 2026-05-08 04:52 | 33.56010 | 139.83104 | 14438 ft | 462 kts | 7° |
| 2026-05-08 04:52 | 33.59147 | 139.83911 | 14843 ft | 466 kts | 7° |
| 2026-05-08 04:53 | 33.62333 | 139.84732 | 14977 ft | 466 kts | 7° |
| 2026-05-08 04:53 | 33.65502 | 139.85547 | 14978 ft | 466 kts | 7° |
| 2026-05-08 04:53 | 33.68641 | 139.86354 | 14981 ft | 465 kts | 7° |
| 2026-05-08 04:53 | 33.71813 | 139.87169 | 14960 ft | 466 kts | 7° |
| 2026-05-08 04:54 | 33.75015 | 139.87990 | 14885 ft | 465 kts | 7° |
| 2026-05-08 04:54 | 33.78169 | 139.88803 | 14853 ft | 465 kts | 7° |
| 2026-05-08 04:54 | 33.81331 | 139.89621 | 14837 ft | 464 kts | 7° |
| 2026-05-08 04:54 | 33.84471 | 139.90428 | 14829 ft | 465 kts | 7° |
| 2026-05-08 04:55 | 33.87653 | 139.91252 | 14828 ft | 465 kts | 7° |
| 2026-05-08 04:55 | 33.90828 | 139.92073 | 14827 ft | 465 kts | 7° |
| 2026-05-08 04:55 | 33.93993 | 139.92891 | 14823 ft | 465 kts | 7° |
| 2026-05-08 04:55 | 33.97147 | 139.93709 | 14816 ft | 465 kts | 7° |
| 2026-05-08 04:56 | 34.00322 | 139.94531 | 14811 ft | 465 kts | 7° |
| 2026-05-08 04:56 | 34.03443 | 139.95340 | 14804 ft | 465 kts | 7° |
| 2026-05-08 04:56 | 34.06625 | 139.96168 | 14801 ft | 465 kts | 7° |
| 2026-05-08 04:56 | 34.09780 | 139.96991 | 14797 ft | 464 kts | 7° |
| 2026-05-08 04:57 | 34.12935 | 139.97810 | 14795 ft | 464 kts | 7° |
| 2026-05-08 04:57 | 34.16098 | 139.98660 | 14791 ft | 466 kts | 10° |
| 2026-05-08 04:57 | 34.19123 | 140.00186 | 14785 ft | 475 kts | 28° |
| 2026-05-08 04:57 | 34.21684 | 140.02716 | 14787 ft | 479 kts | 47° |
| 2026-05-08 04:58 | 34.23796 | 140.05868 | 14707 ft | 480 kts | 49° |
| 2026-05-08 04:58 | 34.26240 | 140.08537 | 14451 ft | 473 kts | 29° |
| 2026-05-08 04:58 | 34.29206 | 140.10023 | 14213 ft | 459 kts | 7° |
| 2026-05-08 04:58 | 34.32318 | 140.10190 | 13980 ft | 444 kts | 347° |
| 2026-05-08 04:59 | 34.35422 | 140.09682 | 13743 ft | 442 kts | 347° |
| 2026-05-08 04:59 | 34.38478 | 140.09354 | 13505 ft | 444 kts | 351° |
| 2026-05-08 04:59 | 34.41587 | 140.09285 | 13266 ft | 445 kts | 355° |
| 2026-05-08 04:59 | 34.44661 | 140.09422 | 13032 ft | 445 kts | 358° |
| 2026-05-08 05:00 | 34.47756 | 140.09692 | 12794 ft | 445 kts | 359° |
| 2026-05-08 05:00 | 34.50843 | 140.10039 | 12556 ft | 444 kts | 0° |
| 2026-05-08 05:00 | 34.53932 | 140.10426 | 12318 ft | 442 kts | 1° |
| 2026-05-08 05:00 | 34.56958 | 140.10829 | 12080 ft | 440 kts | 1° |
| 2026-05-08 05:01 | 34.60008 | 140.11243 | 11844 ft | 439 kts | 1° |
| 2026-05-08 05:01 | 34.63020 | 140.11656 | 11607 ft | 436 kts | 1° |
| 2026-05-08 05:01 | 34.66048 | 140.12074 | 11366 ft | 435 kts | 1° |
| 2026-05-08 05:01 | 34.69055 | 140.12491 | 11128 ft | 433 kts | 1° |
| 2026-05-08 05:02 | 34.72039 | 140.12903 | 11019 ft | 433 kts | 1° |
| 2026-05-08 05:02 | 34.75036 | 140.13318 | 11015 ft | 432 kts | 1° |
| 2026-05-08 05:02 | 34.78030 | 140.13734 | 11012 ft | 432 kts | 1° |
| 2026-05-08 05:02 | 34.81001 | 140.14146 | 11012 ft | 433 kts | 1° |
| 2026-05-08 05:03 | 34.84014 | 140.14566 | 11013 ft | 432 kts | 1° |
| 2026-05-08 05:03 | 34.87003 | 140.14983 | 11010 ft | 432 kts | 1° |
| 2026-05-08 05:03 | 34.89968 | 140.15396 | 11002 ft | 431 kts | 1° |
| 2026-05-08 05:03 | 34.92951 | 140.15813 | 10786 ft | 430 kts | 1° |
| 2026-05-08 05:04 | 34.95924 | 140.16226 | 10546 ft | 428 kts | 1° |
| 2026-05-08 05:04 | 34.98870 | 140.16638 | 10305 ft | 427 kts | 1° |
| 2026-05-08 05:04 | 35.01800 | 140.17049 | 10019 ft | 420 kts | 2° |
| 2026-05-08 05:04 | 35.04644 | 140.17453 | 9840 ft | 403 kts | 1° |
| 2026-05-08 05:05 | 35.07350 | 140.17841 | 9710 ft | 373 kts | 1° |
| 2026-05-08 05:05 | 35.09828 | 140.18199 | 9580 ft | 342 kts | 1° |
| 2026-05-08 05:05 | 35.12087 | 140.18523 | 9460 ft | 321 kts | 0° |
| 2026-05-08 05:05 | 35.14311 | 140.18829 | 9332 ft | 317 kts | 0° |
| 2026-05-08 05:06 | 35.16488 | 140.19127 | 9214 ft | 316 kts | 0° |
| 2026-05-08 05:06 | 35.18669 | 140.19424 | 9076 ft | 315 kts | 0° |
| 2026-05-08 05:06 | 35.20850 | 140.19727 | 8964 ft | 314 kts | 0° |
| 2026-05-08 05:06 | 35.23013 | 140.20029 | 8843 ft | 313 kts | 0° |
| 2026-05-08 05:07 | 35.25228 | 140.20338 | 8709 ft | 311 kts | 1° |
| 2026-05-08 05:07 | 35.27373 | 140.20641 | 8589 ft | 310 kts | 1° |
| 2026-05-08 05:07 | 35.29497 | 140.20941 | 8474 ft | 309 kts | 1° |
| 2026-05-08 05:07 | 35.31685 | 140.21249 | 8345 ft | 309 kts | 1° |
| 2026-05-08 05:08 | 35.33836 | 140.21553 | 8221 ft | 308 kts | 1° |
| 2026-05-08 05:08 | 35.35960 | 140.21828 | 8074 ft | 306 kts | 359° |
| 2026-05-08 05:08 | 35.38068 | 140.21922 | 7724 ft | 305 kts | 353° |
| 2026-05-08 05:08 | 35.40142 | 140.21797 | 7679 ft | 297 kts | 349° |
| 2026-05-08 05:09 | 35.42227 | 140.21584 | 7698 ft | 298 kts | 349° |
| 2026-05-08 05:09 | 35.44283 | 140.21359 | 7720 ft | 298 kts | 349° |
| 2026-05-08 05:09 | 35.46359 | 140.21138 | 7730 ft | 298 kts | 349° |
| 2026-05-08 05:09 | 35.48422 | 140.20921 | 7578 ft | 295 kts | 349° |
| 2026-05-08 05:10 | 35.50448 | 140.20712 | 7277 ft | 291 kts | 349° |
| 2026-05-08 05:10 | 35.54341 | 140.20036 | 6953 ft | 267 kts | 340° |
| 2026-05-08 05:10 | 35.56086 | 140.19470 | 6926 ft | 252 kts | 338° |
| 2026-05-08 05:11 | 35.57715 | 140.18840 | 6706 ft | 243 kts | 327° |
| 2026-05-08 05:11 | 35.59019 | 140.17635 | 6449 ft | 227 kts | 302° |
| 2026-05-08 05:11 | 35.59847 | 140.16042 | 6231 ft | 217 kts | 293° |
| 2026-05-08 05:11 | 35.60439 | 140.14392 | 6040 ft | 206 kts | 279° |
| 2026-05-08 05:12 | 35.60610 | 140.12705 | 5847 ft | 197 kts | 266° |
| 2026-05-08 05:12 | 35.60594 | 140.11064 | 5697 ft | 191 kts | 265° |
| 2026-05-08 05:12 | 35.60566 | 140.09431 | 5604 ft | 192 kts | 265° |
| 2026-05-08 05:12 | 35.60545 | 140.07791 | 5457 ft | 191 kts | 265° |
| 2026-05-08 05:13 | 35.60531 | 140.06160 | 5194 ft | 190 kts | 265° |
| 2026-05-08 05:13 | 35.60522 | 140.04552 | 4954 ft | 184 kts | 265° |
| 2026-05-08 05:13 | 35.60515 | 140.03023 | 4732 ft | 177 kts | 265° |
| 2026-05-08 05:13 | 35.60506 | 140.01503 | 4412 ft | 176 kts | 265° |
| 2026-05-08 05:14 | 35.60496 | 140.00001 | 4130 ft | 175 kts | 264° |
| 2026-05-08 05:14 | 35.60487 | 139.98509 | 3870 ft | 175 kts | 264° |
| 2026-05-08 05:14 | 35.60479 | 139.97023 | 3616 ft | 174 kts | 264° |
| 2026-05-08 05:14 | 35.60469 | 139.95549 | 3368 ft | 173 kts | 264° |
| 2026-05-08 05:15 | 35.60460 | 139.94064 | 3123 ft | 172 kts | 264° |
| 2026-05-08 05:15 | 35.60451 | 139.92624 | 2886 ft | 168 kts | 264° |
| 2026-05-08 05:15 | 35.60443 | 139.91219 | 2637 ft | 164 kts | 263° |
| 2026-05-08 05:15 | 35.60435 | 139.89838 | 2419 ft | 158 kts | 263° |
| 2026-05-08 05:16 | 35.60429 | 139.88539 | 2179 ft | 148 kts | 263° |
| 2026-05-08 05:16 | 35.60426 | 139.87337 | 1986 ft | 133 kts | 262° |
| 2026-05-08 05:16 | 35.60423 | 139.86247 | 1766 ft | 125 kts | 261° |
| 2026-05-08 05:16 | 35.60426 | 139.85173 | 1560 ft | 126 kts | 262° |
| 2026-05-08 05:17 | 35.60443 | 139.84090 | 1397 ft | 127 kts | 261° |
| 2026-05-08 05:17 | 35.60326 | 139.83040 | 1242 ft | 123 kts | 248° |
| 2026-05-08 05:17 | 35.60009 | 139.82080 | 1006 ft | 121 kts | 237° |
| 2026-05-08 05:17 | 35.59574 | 139.81198 | 837 ft | 120 kts | 231° |
| 2026-05-08 05:18 | 35.59069 | 139.80379 | 681 ft | 121 kts | 230° |
| 2026-05-08 05:18 | 35.58540 | 139.79565 | 538 ft | 121 kts | 225° |
| 2026-05-08 05:18 | 35.57943 | 139.78838 | 355 ft | 122 kts | 219° |
| 2026-05-08 05:18 | 35.57276 | 139.78181 | 197 ft | 123 kts | 215° |
| 2026-05-08 05:19 | 35.56572 | 139.77556 | 40 ft | 123 kts | 214° |
| 2026-05-08 05:19 | 35.55944 | 139.77026 | 28 ft | 91 kts | 216° |
| 2026-05-08 05:19 | 35.55593 | 139.76726 | 28 ft | 30 kts | 216° |
| 2026-05-08 05:19 | 35.55502 | 139.76645 | 28 ft | 11 kts | 200° |
| 2026-05-08 05:20 | 35.55421 | 139.76640 | 28 ft | 11 kts | 190° |
| 2026-05-08 05:20 | 35.55347 | 139.76622 | 28 ft | 9 kts | 187° |
| 2026-05-08 05:20 | 35.55288 | 139.76654 | 28 ft | 10 kts | 121° |
| 2026-05-08 05:20 | 35.55299 | 139.76733 | 28 ft | 10 kts | 45° |
| 2026-05-08 05:21 | 35.55363 | 139.76793 | 28 ft | 12 kts | 36° |
| 2026-05-08 05:21 | 35.55436 | 139.76854 | 28 ft | 13 kts | 35° |
| 2026-05-08 05:21 | 35.55513 | 139.76921 | 28 ft | 14 kts | 36° |
| 2026-05-08 05:21 | 35.55596 | 139.76991 | 28 ft | 14 kts | 34° |
| 2026-05-08 05:22 | 35.55684 | 139.77068 | 28 ft | 15 kts | 36° |
| 2026-05-08 05:22 | 35.55775 | 139.77145 | 28 ft | 16 kts | 35° |
| 2026-05-08 05:22 | 35.55870 | 139.77228 | 28 ft | 16 kts | 35° |
| 2026-05-08 05:22 | 35.55939 | 139.77315 | 28 ft | 14 kts | 58° |
| 2026-05-08 05:23 | 35.55989 | 139.77422 | 28 ft | 14 kts | 62° |
| 2026-05-08 05:23 | 35.56040 | 139.77528 | 28 ft | 15 kts | 60° |
| 2026-05-08 05:23 | 35.56111 | 139.77678 | 28 ft | 25 kts | 60° |
| 2026-05-08 05:23 | 35.56210 | 139.77887 | 28 ft | 28 kts | 58° |
| 2026-05-08 05:24 | 35.56305 | 139.78088 | 28 ft | 22 kts | 60° |
| 2026-05-08 05:24 | 35.56354 | 139.78192 | 28 ft | 12 kts | 60° |
| 2026-05-08 05:24 | 35.56395 | 139.78279 | 28 ft | 10 kts | 60° |
| 2026-05-08 05:24 | 35.56423 | 139.78363 | 28 ft | 11 kts | 99° |
| 2026-05-08 05:25 | 35.56368 | 139.78429 | 28 ft | 11 kts | 149° |
| 2026-05-08 05:25 | 35.56269 | 139.78499 | 28 ft | 22 kts | 150° |
| 2026-05-08 05:25 | 35.56125 | 139.78600 | 28 ft | 20 kts | 149° |
| 2026-05-08 05:25 | 35.56004 | 139.78687 | 28 ft | 20 kts | 150° |
| 2026-05-08 05:26 | 35.55885 | 139.78772 | 28 ft | 19 kts | 150° |
| 2026-05-08 05:26 | 35.55765 | 139.78856 | 28 ft | 19 kts | 150° |
| 2026-05-08 05:26 | 35.55650 | 139.78938 | 28 ft | 19 kts | 150° |
| 2026-05-08 05:26 | 35.55535 | 139.79019 | 28 ft | 13 kts | 150° |
| 2026-05-08 05:27 | 35.55456 | 139.79034 | 28 ft | 12 kts | 212° |
| 2026-05-08 05:27 | 35.55413 | 139.78963 | 28 ft | 3 kts | 239° |
| 2026-05-08 05:27 | 35.55392 | 139.78938 | 28 ft | 4 kts | 208° |
| 2026-05-08 05:27 | 35.55355 | 139.78931 | 28 ft | 6 kts | 172° |
| 2026-05-08 05:28 | 35.55316 | 139.78949 | 28 ft | 4 kts | 179° |
| 2026-05-08 05:28 | 35.55291 | 139.78925 | 28 ft | 5 kts | 238° |
| 2026-05-08 05:28 | 35.55273 | 139.78886 | 28 ft | 1 kts | 239° |
| 2026-05-08 05:28 | 35.55270 | 139.78880 | 28 ft | 1 kts | 239° |
| 2026-05-08 05:29 | 35.55265 | 139.78871 | 28 ft | 1 kts | 239° |
| 2026-05-08 05:29 | 35.55265 | 139.78870 | 28 ft | 0 kts | 239° |